sensor_id;sensor_type;location;lat;lon;timestamp;P1;durP1;ratioP1;P2;durP2;ratioP2
5995;SDS011;3026;53.612;7.278;2022-10-16T00:00:48;4.43;;;1.87;;
5995;SDS011;3026;53.612;7.278;2022-10-16T00:03:18;5.13;;;1.50;;
5995;SDS011;3026;53.612;7.278;2022-10-16T00:05:45;8.50;;;1.67;;
5995;SDS011;3026;53.612;7.278;2022-10-16T00:08:12;4.93;;;1.67;;
5995;SDS011;3026;53.612;7.278;2022-10-16T00:10:40;5.80;;;1.40;;
5995;SDS011;3026;53.612;7.278;2022-10-16T00:13:07;4.93;;;1.33;;
5995;SDS011;3026;53.612;7.278;2022-10-16T00:15:36;4.67;;;1.47;;
5995;SDS011;3026;53.612;7.278;2022-10-16T00:18:04;3.87;;;1.60;;
5995;SDS011;3026;53.612;7.278;2022-10-16T00:20:33;3.87;;;1.67;;
5995;SDS011;3026;53.612;7.278;2022-10-16T00:23:02;6.40;;;1.73;;
5995;SDS011;3026;53.612;7.278;2022-10-16T00:25:30;2.77;;;1.47;;
5995;SDS011;3026;53.612;7.278;2022-10-16T00:27:59;2.70;;;1.40;;
5995;SDS011;3026;53.612;7.278;2022-10-16T00:30:26;5.77;;;1.50;;
5995;SDS011;3026;53.612;7.278;2022-10-16T00:32:55;6.17;;;1.70;;
5995;SDS011;3026;53.612;7.278;2022-10-16T00:35:23;9.37;;;2.17;;
5995;SDS011;3026;53.612;7.278;2022-10-16T00:37:50;7.57;;;1.80;;
5995;SDS011;3026;53.612;7.278;2022-10-16T00:40:17;10.23;;;1.87;;
5995;SDS011;3026;53.612;7.278;2022-10-16T00:42:44;4.80;;;1.50;;
5995;SDS011;3026;53.612;7.278;2022-10-16T00:45:11;6.63;;;2.33;;
5995;SDS011;3026;53.612;7.278;2022-10-16T00:47:39;3.67;;;1.37;;
5995;SDS011;3026;53.612;7.278;2022-10-16T00:50:13;7.77;;;1.63;;
5995;SDS011;3026;53.612;7.278;2022-10-16T00:52:46;4.57;;;1.80;;
5995;SDS011;3026;53.612;7.278;2022-10-16T00:55:14;5.20;;;1.47;;
5995;SDS011;3026;53.612;7.278;2022-10-16T00:57:42;5.90;;;1.50;;
5995;SDS011;3026;53.612;7.278;2022-10-16T01:00:11;5.53;;;1.97;;
5995;SDS011;3026;53.612;7.278;2022-10-16T01:02:41;5.57;;;1.47;;
5995;SDS011;3026;53.612;7.278;2022-10-16T01:05:08;5.33;;;1.57;;
5995;SDS011;3026;53.612;7.278;2022-10-16T01:07:39;5.90;;;1.47;;
5995;SDS011;3026;53.612;7.278;2022-10-16T01:10:17;2.83;;;1.37;;
5995;SDS011;3026;53.612;7.278;2022-10-16T01:12:54;5.97;;;1.63;;
5995;SDS011;3026;53.612;7.278;2022-10-16T01:15:26;5.60;;;1.40;;
5995;SDS011;3026;53.612;7.278;2022-10-16T01:17:58;4.67;;;1.40;;
5995;SDS011;3026;53.612;7.278;2022-10-16T01:20:29;4.63;;;1.20;;
5995;SDS011;3026;53.612;7.278;2022-10-16T01:23:11;6.27;;;1.57;;
5995;SDS011;3026;53.612;7.278;2022-10-16T01:25:51;6.53;;;1.87;;
5995;SDS011;3026;53.612;7.278;2022-10-16T01:28:29;4.70;;;1.40;;
5995;SDS011;3026;53.612;7.278;2022-10-16T01:31:00;6.13;;;1.87;;
5995;SDS011;3026;53.612;7.278;2022-10-16T01:33:30;4.20;;;1.40;;
5995;SDS011;3026;53.612;7.278;2022-10-16T01:36:04;4.87;;;1.60;;
5995;SDS011;3026;53.612;7.278;2022-10-16T01:38:37;3.07;;;1.23;;
5995;SDS011;3026;53.612;7.278;2022-10-16T01:41:06;3.57;;;1.47;;
5995;SDS011;3026;53.612;7.278;2022-10-16T01:43:40;3.33;;;1.40;;
5995;SDS011;3026;53.612;7.278;2022-10-16T01:46:12;5.10;;;1.73;;
5995;SDS011;3026;53.612;7.278;2022-10-16T01:48:42;7.70;;;1.80;;
5995;SDS011;3026;53.612;7.278;2022-10-16T01:51:11;7.13;;;1.73;;
5995;SDS011;3026;53.612;7.278;2022-10-16T01:53:40;4.87;;;1.30;;
5995;SDS011;3026;53.612;7.278;2022-10-16T01:56:11;6.37;;;1.70;;
5995;SDS011;3026;53.612;7.278;2022-10-16T01:58:42;5.73;;;1.57;;
5995;SDS011;3026;53.612;7.278;2022-10-16T02:01:14;4.77;;;1.50;;
5995;SDS011;3026;53.612;7.278;2022-10-16T02:03:45;3.93;;;1.40;;
5995;SDS011;3026;53.612;7.278;2022-10-16T02:06:17;5.70;;;1.43;;
5995;SDS011;3026;53.612;7.278;2022-10-16T02:08:44;2.40;;;1.10;;
5995;SDS011;3026;53.612;7.278;2022-10-16T02:11:11;2.10;;;1.23;;
5995;SDS011;3026;53.612;7.278;2022-10-16T02:13:39;5.47;;;1.30;;
5995;SDS011;3026;53.612;7.278;2022-10-16T02:16:11;6.47;;;2.03;;
5995;SDS011;3026;53.612;7.278;2022-10-16T02:18:39;3.13;;;1.27;;
5995;SDS011;3026;53.612;7.278;2022-10-16T02:21:09;3.47;;;1.70;;
5995;SDS011;3026;53.612;7.278;2022-10-16T02:23:42;6.17;;;1.43;;
5995;SDS011;3026;53.612;7.278;2022-10-16T02:26:22;3.50;;;1.40;;
5995;SDS011;3026;53.612;7.278;2022-10-16T02:28:58;4.20;;;1.30;;
5995;SDS011;3026;53.612;7.278;2022-10-16T02:31:32;9.93;;;1.90;;
5995;SDS011;3026;53.612;7.278;2022-10-16T02:34:02;3.60;;;1.57;;
5995;SDS011;3026;53.612;7.278;2022-10-16T02:36:31;5.60;;;1.93;;
5995;SDS011;3026;53.612;7.278;2022-10-16T02:39:00;5.40;;;1.53;;
5995;SDS011;3026;53.612;7.278;2022-10-16T02:41:28;4.00;;;1.43;;
5995;SDS011;3026;53.612;7.278;2022-10-16T02:43:58;2.90;;;1.57;;
5995;SDS011;3026;53.612;7.278;2022-10-16T02:46:25;4.17;;;1.57;;
5995;SDS011;3026;53.612;7.278;2022-10-16T02:48:52;5.50;;;1.70;;
5995;SDS011;3026;53.612;7.278;2022-10-16T02:51:19;5.23;;;1.63;;
5995;SDS011;3026;53.612;7.278;2022-10-16T02:53:46;5.23;;;1.70;;
5995;SDS011;3026;53.612;7.278;2022-10-16T02:56:13;4.57;;;1.43;;
5995;SDS011;3026;53.612;7.278;2022-10-16T02:58:40;3.47;;;1.57;;
5995;SDS011;3026;53.612;7.278;2022-10-16T03:01:09;5.83;;;1.80;;
5995;SDS011;3026;53.612;7.278;2022-10-16T03:03:40;4.17;;;1.53;;
5995;SDS011;3026;53.612;7.278;2022-10-16T03:06:07;3.73;;;1.60;;
5995;SDS011;3026;53.612;7.278;2022-10-16T03:08:33;2.93;;;1.80;;
5995;SDS011;3026;53.612;7.278;2022-10-16T03:11:00;4.73;;;1.57;;
5995;SDS011;3026;53.612;7.278;2022-10-16T03:13:27;2.97;;;1.60;;
5995;SDS011;3026;53.612;7.278;2022-10-16T03:15:54;4.23;;;1.50;;
5995;SDS011;3026;53.612;7.278;2022-10-16T03:18:23;7.33;;;1.90;;
5995;SDS011;3026;53.612;7.278;2022-10-16T03:20:50;4.97;;;1.83;;
5995;SDS011;3026;53.612;7.278;2022-10-16T03:23:17;4.77;;;1.50;;
5995;SDS011;3026;53.612;7.278;2022-10-16T03:25:45;4.43;;;1.37;;
5995;SDS011;3026;53.612;7.278;2022-10-16T03:28:11;5.87;;;1.53;;
5995;SDS011;3026;53.612;7.278;2022-10-16T03:30:38;2.83;;;1.80;;
5995;SDS011;3026;53.612;7.278;2022-10-16T03:33:05;4.27;;;1.47;;
5995;SDS011;3026;53.612;7.278;2022-10-16T03:35:40;1.60;;;1.30;;
5995;SDS011;3026;53.612;7.278;2022-10-16T03:38:08;4.40;;;1.73;;
5995;SDS011;3026;53.612;7.278;2022-10-16T03:40:35;6.03;;;1.87;;
5995;SDS011;3026;53.612;7.278;2022-10-16T03:43:08;2.03;;;1.63;;
5995;SDS011;3026;53.612;7.278;2022-10-16T03:45:35;6.87;;;1.87;;
5995;SDS011;3026;53.612;7.278;2022-10-16T03:48:02;6.10;;;1.80;;
5995;SDS011;3026;53.612;7.278;2022-10-16T03:50:29;2.70;;;1.70;;
5995;SDS011;3026;53.612;7.278;2022-10-16T03:52:58;2.50;;;1.43;;
5995;SDS011;3026;53.612;7.278;2022-10-16T03:55:24;3.63;;;1.50;;
5995;SDS011;3026;53.612;7.278;2022-10-16T03:57:51;2.10;;;1.50;;
5995;SDS011;3026;53.612;7.278;2022-10-16T04:00:18;4.13;;;1.40;;
5995;SDS011;3026;53.612;7.278;2022-10-16T04:02:45;2.07;;;1.40;;
5995;SDS011;3026;53.612;7.278;2022-10-16T04:05:12;4.10;;;1.63;;
5995;SDS011;3026;53.612;7.278;2022-10-16T04:07:39;2.53;;;1.50;;
5995;SDS011;3026;53.612;7.278;2022-10-16T04:10:08;3.60;;;1.63;;
5995;SDS011;3026;53.612;7.278;2022-10-16T04:12:35;3.83;;;1.50;;
5995;SDS011;3026;53.612;7.278;2022-10-16T04:15:02;5.00;;;1.90;;
5995;SDS011;3026;53.612;7.278;2022-10-16T04:17:30;5.60;;;2.20;;
5995;SDS011;3026;53.612;7.278;2022-10-16T04:19:57;3.27;;;1.70;;
5995;SDS011;3026;53.612;7.278;2022-10-16T04:22:24;3.03;;;1.80;;
5995;SDS011;3026;53.612;7.278;2022-10-16T04:24:51;5.37;;;2.13;;
5995;SDS011;3026;53.612;7.278;2022-10-16T04:27:19;4.63;;;1.93;;
5995;SDS011;3026;53.612;7.278;2022-10-16T04:29:46;4.00;;;1.43;;
5995;SDS011;3026;53.612;7.278;2022-10-16T04:32:13;2.27;;;1.50;;
5995;SDS011;3026;53.612;7.278;2022-10-16T04:34:43;4.37;;;1.70;;
5995;SDS011;3026;53.612;7.278;2022-10-16T04:37:10;5.03;;;2.27;;
5995;SDS011;3026;53.612;7.278;2022-10-16T04:39:37;2.37;;;1.70;;
5995;SDS011;3026;53.612;7.278;2022-10-16T04:42:03;1.73;;;1.50;;
5995;SDS011;3026;53.612;7.278;2022-10-16T04:44:32;6.13;;;2.07;;
5995;SDS011;3026;53.612;7.278;2022-10-16T04:46:59;5.17;;;1.60;;
5995;SDS011;3026;53.612;7.278;2022-10-16T04:49:26;16.53;;;1.97;;
5995;SDS011;3026;53.612;7.278;2022-10-16T04:51:53;4.80;;;1.70;;
5995;SDS011;3026;53.612;7.278;2022-10-16T04:54:20;3.57;;;1.80;;
5995;SDS011;3026;53.612;7.278;2022-10-16T04:56:47;2.70;;;1.43;;
5995;SDS011;3026;53.612;7.278;2022-10-16T04:59:16;6.87;;;1.70;;
5995;SDS011;3026;53.612;7.278;2022-10-16T05:01:46;3.37;;;1.57;;
5995;SDS011;3026;53.612;7.278;2022-10-16T05:04:13;5.40;;;1.67;;
5995;SDS011;3026;53.612;7.278;2022-10-16T05:06:41;4.07;;;1.37;;
5995;SDS011;3026;53.612;7.278;2022-10-16T05:09:08;2.57;;;1.40;;
5995;SDS011;3026;53.612;7.278;2022-10-16T05:11:35;4.37;;;1.97;;
5995;SDS011;3026;53.612;7.278;2022-10-16T05:14:04;5.80;;;2.00;;
5995;SDS011;3026;53.612;7.278;2022-10-16T05:16:31;2.60;;;1.87;;
5995;SDS011;3026;53.612;7.278;2022-10-16T05:18:59;4.53;;;2.53;;
5995;SDS011;3026;53.612;7.278;2022-10-16T05:21:26;4.60;;;2.20;;
5995;SDS011;3026;53.612;7.278;2022-10-16T05:23:53;3.07;;;1.97;;
5995;SDS011;3026;53.612;7.278;2022-10-16T05:26:20;5.43;;;2.20;;
5995;SDS011;3026;53.612;7.278;2022-10-16T05:28:49;3.57;;;2.10;;
5995;SDS011;3026;53.612;7.278;2022-10-16T05:31:16;5.20;;;1.63;;
5995;SDS011;3026;53.612;7.278;2022-10-16T05:33:43;3.77;;;1.83;;
5995;SDS011;3026;53.612;7.278;2022-10-16T05:36:12;7.90;;;1.73;;
5995;SDS011;3026;53.612;7.278;2022-10-16T05:38:39;2.57;;;1.60;;
5995;SDS011;3026;53.612;7.278;2022-10-16T05:41:06;2.13;;;1.60;;
5995;SDS011;3026;53.612;7.278;2022-10-16T05:43:33;4.67;;;1.63;;
5995;SDS011;3026;53.612;7.278;2022-10-16T05:46:06;4.97;;;1.47;;
5995;SDS011;3026;53.612;7.278;2022-10-16T05:48:33;2.00;;;1.70;;
5995;SDS011;3026;53.612;7.278;2022-10-16T05:51:01;4.20;;;1.80;;
5995;SDS011;3026;53.612;7.278;2022-10-16T05:53:32;2.70;;;1.73;;
5995;SDS011;3026;53.612;7.278;2022-10-16T05:56:00;3.53;;;1.50;;
5995;SDS011;3026;53.612;7.278;2022-10-16T05:58:28;1.90;;;1.60;;
5995;SDS011;3026;53.612;7.278;2022-10-16T06:00:57;5.07;;;1.50;;
5995;SDS011;3026;53.612;7.278;2022-10-16T06:03:25;3.37;;;1.83;;
5995;SDS011;3026;53.612;7.278;2022-10-16T06:05:53;9.17;;;3.80;;
5995;SDS011;3026;53.612;7.278;2022-10-16T06:08:20;5.63;;;1.80;;
5995;SDS011;3026;53.612;7.278;2022-10-16T06:10:57;4.20;;;1.60;;
5995;SDS011;3026;53.612;7.278;2022-10-16T06:13:27;4.33;;;1.60;;
5995;SDS011;3026;53.612;7.278;2022-10-16T06:15:56;2.80;;;1.70;;
5995;SDS011;3026;53.612;7.278;2022-10-16T06:18:24;7.03;;;1.83;;
5995;SDS011;3026;53.612;7.278;2022-10-16T06:20:51;3.17;;;1.60;;
5995;SDS011;3026;53.612;7.278;2022-10-16T06:23:18;3.47;;;1.20;;
5995;SDS011;3026;53.612;7.278;2022-10-16T06:25:45;4.80;;;1.60;;
5995;SDS011;3026;53.612;7.278;2022-10-16T06:28:14;1.23;;;1.13;;
5995;SDS011;3026;53.612;7.278;2022-10-16T06:30:42;2.07;;;1.47;;
5995;SDS011;3026;53.612;7.278;2022-10-16T06:33:09;5.40;;;1.47;;
5995;SDS011;3026;53.612;7.278;2022-10-16T06:35:36;4.23;;;1.40;;
5995;SDS011;3026;53.612;7.278;2022-10-16T06:38:03;3.80;;;1.57;;
5995;SDS011;3026;53.612;7.278;2022-10-16T06:40:34;4.10;;;1.80;;
5995;SDS011;3026;53.612;7.278;2022-10-16T06:43:01;3.77;;;1.73;;
5995;SDS011;3026;53.612;7.278;2022-10-16T06:45:29;3.07;;;1.50;;
5995;SDS011;3026;53.612;7.278;2022-10-16T06:47:56;4.67;;;1.87;;
5995;SDS011;3026;53.612;7.278;2022-10-16T06:50:24;4.20;;;1.80;;
5995;SDS011;3026;53.612;7.278;2022-10-16T06:52:52;3.17;;;1.60;;
5995;SDS011;3026;53.612;7.278;2022-10-16T06:55:25;6.67;;;1.80;;
5995;SDS011;3026;53.612;7.278;2022-10-16T06:57:55;2.47;;;1.57;;
5995;SDS011;3026;53.612;7.278;2022-10-16T07:00:31;3.67;;;1.83;;
5995;SDS011;3026;53.612;7.278;2022-10-16T07:02:58;8.07;;;2.17;;
5995;SDS011;3026;53.612;7.278;2022-10-16T07:05:25;4.77;;;1.87;;
5995;SDS011;3026;53.612;7.278;2022-10-16T07:07:52;4.40;;;2.17;;
5995;SDS011;3026;53.612;7.278;2022-10-16T07:10:19;2.63;;;1.67;;
5995;SDS011;3026;53.612;7.278;2022-10-16T07:12:49;3.60;;;1.60;;
5995;SDS011;3026;53.612;7.278;2022-10-16T07:15:16;4.30;;;2.00;;
5995;SDS011;3026;53.612;7.278;2022-10-16T07:17:44;2.43;;;1.70;;
5995;SDS011;3026;53.612;7.278;2022-10-16T07:20:14;3.27;;;1.90;;
5995;SDS011;3026;53.612;7.278;2022-10-16T07:26:18;8.10;;;1.90;;
5995;SDS011;3026;53.612;7.278;2022-10-16T07:29:16;4.33;;;2.00;;
5995;SDS011;3026;53.612;7.278;2022-10-16T08:00:29;5.03;;;2.00;;
5995;SDS011;3026;53.612;7.278;2022-10-16T08:03:08;4.03;;;2.00;;
5995;SDS011;3026;53.612;7.278;2022-10-16T08:05:36;4.80;;;2.00;;
5995;SDS011;3026;53.612;7.278;2022-10-16T08:08:03;7.43;;;2.30;;
5995;SDS011;3026;53.612;7.278;2022-10-16T08:10:30;5.67;;;2.23;;
5995;SDS011;3026;53.612;7.278;2022-10-16T08:12:57;5.63;;;2.30;;
5995;SDS011;3026;53.612;7.278;2022-10-16T08:15:27;3.63;;;1.80;;
5995;SDS011;3026;53.612;7.278;2022-10-16T08:17:55;6.93;;;2.27;;
5995;SDS011;3026;53.612;7.278;2022-10-16T08:20:23;3.53;;;1.60;;
5995;SDS011;3026;53.612;7.278;2022-10-16T08:22:55;6.23;;;2.13;;
5995;SDS011;3026;53.612;7.278;2022-10-16T08:25:23;5.03;;;1.80;;
5995;SDS011;3026;53.612;7.278;2022-10-16T08:27:51;4.83;;;1.63;;
5995;SDS011;3026;53.612;7.278;2022-10-16T08:30:19;7.43;;;1.80;;
5995;SDS011;3026;53.612;7.278;2022-10-16T08:32:49;6.07;;;1.77;;
5995;SDS011;3026;53.612;7.278;2022-10-16T08:35:17;5.80;;;1.87;;
5995;SDS011;3026;53.612;7.278;2022-10-16T08:37:50;3.90;;;1.60;;
5995;SDS011;3026;53.612;7.278;2022-10-16T08:40:32;6.53;;;1.83;;
5995;SDS011;3026;53.612;7.278;2022-10-16T08:43:15;4.00;;;1.93;;
5995;SDS011;3026;53.612;7.278;2022-10-16T08:52:30;5.07;;;1.80;;
5995;SDS011;3026;53.612;7.278;2022-10-16T08:55:36;5.03;;;1.93;;
5995;SDS011;3026;53.612;7.278;2022-10-16T09:01:38;4.00;;;1.63;;
5995;SDS011;3026;53.612;7.278;2022-10-16T09:04:38;5.47;;;1.73;;
5995;SDS011;3026;53.612;7.278;2022-10-16T09:10:31;4.27;;;2.13;;
5995;SDS011;3026;53.612;7.278;2022-10-16T09:13:10;3.63;;;1.80;;
5995;SDS011;3026;53.612;7.278;2022-10-16T09:15:46;5.40;;;1.53;;
5995;SDS011;3026;53.612;7.278;2022-10-16T09:18:20;5.43;;;1.60;;
5995;SDS011;3026;53.612;7.278;2022-10-16T09:20:53;6.40;;;2.03;;
5995;SDS011;3026;53.612;7.278;2022-10-16T09:23:28;4.13;;;1.97;;
5995;SDS011;3026;53.612;7.278;2022-10-16T09:25:56;3.30;;;2.13;;
5995;SDS011;3026;53.612;7.278;2022-10-16T09:28:31;4.80;;;1.80;;
5995;SDS011;3026;53.612;7.278;2022-10-16T09:30:59;4.83;;;1.83;;
5995;SDS011;3026;53.612;7.278;2022-10-16T09:33:28;6.57;;;1.80;;
5995;SDS011;3026;53.612;7.278;2022-10-16T09:36:02;3.40;;;1.73;;
5995;SDS011;3026;53.612;7.278;2022-10-16T09:38:34;7.67;;;2.37;;
5995;SDS011;3026;53.612;7.278;2022-10-16T09:41:04;4.00;;;1.33;;
5995;SDS011;3026;53.612;7.278;2022-10-16T09:43:46;5.03;;;2.70;;
5995;SDS011;3026;53.612;7.278;2022-10-16T09:46:22;3.57;;;1.73;;
5995;SDS011;3026;53.612;7.278;2022-10-16T09:48:54;6.37;;;1.67;;
5995;SDS011;3026;53.612;7.278;2022-10-16T09:51:24;4.73;;;1.53;;
5995;SDS011;3026;53.612;7.278;2022-10-16T09:53:56;5.03;;;1.80;;
5995;SDS011;3026;53.612;7.278;2022-10-16T09:56:26;4.57;;;2.10;;
5995;SDS011;3026;53.612;7.278;2022-10-16T09:58:55;4.50;;;1.60;;
5995;SDS011;3026;53.612;7.278;2022-10-16T10:01:27;5.70;;;1.60;;
5995;SDS011;3026;53.612;7.278;2022-10-16T10:03:57;7.93;;;1.90;;
5995;SDS011;3026;53.612;7.278;2022-10-16T10:06:28;7.23;;;1.50;;
5995;SDS011;3026;53.612;7.278;2022-10-16T10:09:02;4.77;;;1.67;;
5995;SDS011;3026;53.612;7.278;2022-10-16T10:11:39;7.27;;;1.87;;
5995;SDS011;3026;53.612;7.278;2022-10-16T10:14:22;4.80;;;1.50;;
5995;SDS011;3026;53.612;7.278;2022-10-16T10:19:48;4.37;;;1.43;;
5995;SDS011;3026;53.612;7.278;2022-10-16T10:22:29;3.37;;;1.40;;
5995;SDS011;3026;53.612;7.278;2022-10-16T10:28:03;7.03;;;1.77;;
5995;SDS011;3026;53.612;7.278;2022-10-16T10:30:49;6.23;;;2.00;;
5995;SDS011;3026;53.612;7.278;2022-10-16T10:33:24;5.83;;;1.80;;
5995;SDS011;3026;53.612;7.278;2022-10-16T10:36:00;5.47;;;1.70;;
5995;SDS011;3026;53.612;7.278;2022-10-16T10:38:39;6.27;;;1.77;;
5995;SDS011;3026;53.612;7.278;2022-10-16T10:44:33;8.40;;;1.80;;
5995;SDS011;3026;53.612;7.278;2022-10-16T10:47:21;8.20;;;2.37;;
5995;SDS011;3026;53.612;7.278;2022-10-16T10:49:56;9.47;;;1.83;;
5995;SDS011;3026;53.612;7.278;2022-10-16T10:52:40;12.27;;;2.17;;
5995;SDS011;3026;53.612;7.278;2022-10-16T10:55:17;7.83;;;2.40;;
5995;SDS011;3026;53.612;7.278;2022-10-16T11:00:59;6.13;;;2.23;;
5995;SDS011;3026;53.612;7.278;2022-10-16T11:03:42;9.07;;;2.50;;
5995;SDS011;3026;53.612;7.278;2022-10-16T11:06:22;9.07;;;2.27;;
5995;SDS011;3026;53.612;7.278;2022-10-16T11:08:53;11.00;;;3.70;;
5995;SDS011;3026;53.612;7.278;2022-10-16T11:11:27;7.73;;;2.43;;
5995;SDS011;3026;53.612;7.278;2022-10-16T11:14:00;10.13;;;2.47;;
5995;SDS011;3026;53.612;7.278;2022-10-16T11:16:35;8.93;;;1.97;;
5995;SDS011;3026;53.612;7.278;2022-10-16T11:19:10;8.87;;;2.57;;
5995;SDS011;3026;53.612;7.278;2022-10-16T11:21:43;10.13;;;2.13;;
5995;SDS011;3026;53.612;7.278;2022-10-16T11:24:16;7.20;;;2.00;;
5995;SDS011;3026;53.612;7.278;2022-10-16T11:26:47;9.93;;;2.03;;
5995;SDS011;3026;53.612;7.278;2022-10-16T11:29:16;12.57;;;2.33;;
5995;SDS011;3026;53.612;7.278;2022-10-16T11:31:52;7.80;;;2.13;;
5995;SDS011;3026;53.612;7.278;2022-10-16T11:34:25;6.33;;;2.13;;
5995;SDS011;3026;53.612;7.278;2022-10-16T11:36:57;7.17;;;2.57;;
5995;SDS011;3026;53.612;7.278;2022-10-16T11:39:29;9.23;;;1.80;;
5995;SDS011;3026;53.612;7.278;2022-10-16T11:41:59;8.90;;;2.17;;
5995;SDS011;3026;53.612;7.278;2022-10-16T11:44:48;10.37;;;2.10;;
5995;SDS011;3026;53.612;7.278;2022-10-16T11:47:33;9.83;;;2.50;;
5995;SDS011;3026;53.612;7.278;2022-10-16T11:50:06;6.73;;;2.03;;
5995;SDS011;3026;53.612;7.278;2022-10-16T11:52:43;8.70;;;2.73;;
5995;SDS011;3026;53.612;7.278;2022-10-16T11:55:20;7.40;;;2.07;;
5995;SDS011;3026;53.612;7.278;2022-10-16T11:57:50;7.93;;;2.10;;
5995;SDS011;3026;53.612;7.278;2022-10-16T12:00:22;12.13;;;3.13;;
5995;SDS011;3026;53.612;7.278;2022-10-16T12:02:57;10.87;;;2.77;;
5995;SDS011;3026;53.612;7.278;2022-10-16T12:05:33;13.60;;;2.60;;
5995;SDS011;3026;53.612;7.278;2022-10-16T12:08:17;18.00;;;2.67;;
5995;SDS011;3026;53.612;7.278;2022-10-16T12:10:46;6.70;;;2.43;;
5995;SDS011;3026;53.612;7.278;2022-10-16T12:13:30;9.70;;;2.57;;
5995;SDS011;3026;53.612;7.278;2022-10-16T12:16:04;8.50;;;2.07;;
5995;SDS011;3026;53.612;7.278;2022-10-16T12:18:48;15.37;;;3.03;;
5995;SDS011;3026;53.612;7.278;2022-10-16T12:21:16;12.53;;;3.20;;
5995;SDS011;3026;53.612;7.278;2022-10-16T12:23:49;13.07;;;2.80;;
5995;SDS011;3026;53.612;7.278;2022-10-16T12:26:24;10.27;;;2.93;;
5995;SDS011;3026;53.612;7.278;2022-10-16T12:28:52;12.63;;;2.67;;
5995;SDS011;3026;53.612;7.278;2022-10-16T12:31:20;11.57;;;2.47;;
5995;SDS011;3026;53.612;7.278;2022-10-16T12:33:56;13.93;;;3.20;;
5995;SDS011;3026;53.612;7.278;2022-10-16T12:36:29;14.60;;;3.03;;
5995;SDS011;3026;53.612;7.278;2022-10-16T12:38:58;14.97;;;3.03;;
5995;SDS011;3026;53.612;7.278;2022-10-16T12:41:27;12.13;;;2.77;;
5995;SDS011;3026;53.612;7.278;2022-10-16T12:43:55;13.13;;;3.07;;
5995;SDS011;3026;53.612;7.278;2022-10-16T12:49:22;15.20;;;3.53;;
5995;SDS011;3026;53.612;7.278;2022-10-16T12:51:57;10.07;;;2.37;;
5995;SDS011;3026;53.612;7.278;2022-10-16T12:54:27;14.87;;;3.37;;
5995;SDS011;3026;53.612;7.278;2022-10-16T12:57:00;10.67;;;2.30;;
5995;SDS011;3026;53.612;7.278;2022-10-16T12:59:38;13.33;;;2.60;;
5995;SDS011;3026;53.612;7.278;2022-10-16T13:02:37;8.83;;;2.63;;
5995;SDS011;3026;53.612;7.278;2022-10-16T13:05:23;11.50;;;2.83;;
5995;SDS011;3026;53.612;7.278;2022-10-16T13:08:05;9.87;;;3.07;;
5995;SDS011;3026;53.612;7.278;2022-10-16T13:10:47;14.67;;;3.57;;
5995;SDS011;3026;53.612;7.278;2022-10-16T13:13:32;12.97;;;2.80;;
5995;SDS011;3026;53.612;7.278;2022-10-16T13:16:22;13.93;;;3.00;;
5995;SDS011;3026;53.612;7.278;2022-10-16T13:18:59;10.93;;;2.83;;
5995;SDS011;3026;53.612;7.278;2022-10-16T13:21:42;12.37;;;2.67;;
5995;SDS011;3026;53.612;7.278;2022-10-16T13:24:19;10.23;;;3.10;;
5995;SDS011;3026;53.612;7.278;2022-10-16T13:26:59;9.60;;;2.33;;
5995;SDS011;3026;53.612;7.278;2022-10-16T13:29:35;13.10;;;2.47;;
5995;SDS011;3026;53.612;7.278;2022-10-16T13:32:07;10.90;;;2.60;;
5995;SDS011;3026;53.612;7.278;2022-10-16T13:34:43;11.33;;;2.93;;
5995;SDS011;3026;53.612;7.278;2022-10-16T13:37:18;10.90;;;2.10;;
5995;SDS011;3026;53.612;7.278;2022-10-16T13:39:46;9.13;;;2.70;;
5995;SDS011;3026;53.612;7.278;2022-10-16T13:42:18;9.23;;;2.33;;
5995;SDS011;3026;53.612;7.278;2022-10-16T13:44:53;6.77;;;2.23;;
5995;SDS011;3026;53.612;7.278;2022-10-16T13:47:24;13.93;;;2.40;;
5995;SDS011;3026;53.612;7.278;2022-10-16T13:49:59;12.73;;;2.73;;
5995;SDS011;3026;53.612;7.278;2022-10-16T13:52:28;11.23;;;2.40;;
5995;SDS011;3026;53.612;7.278;2022-10-16T13:54:55;8.77;;;2.70;;
5995;SDS011;3026;53.612;7.278;2022-10-16T13:57:23;16.23;;;2.90;;
5995;SDS011;3026;53.612;7.278;2022-10-16T13:59:51;11.33;;;2.63;;
5995;SDS011;3026;53.612;7.278;2022-10-16T14:02:21;10.30;;;2.40;;
5995;SDS011;3026;53.612;7.278;2022-10-16T14:04:53;10.73;;;2.60;;
5995;SDS011;3026;53.612;7.278;2022-10-16T14:07:24;10.70;;;2.40;;
5995;SDS011;3026;53.612;7.278;2022-10-16T14:09:58;8.97;;;2.10;;
5995;SDS011;3026;53.612;7.278;2022-10-16T14:12:28;9.77;;;2.17;;
5995;SDS011;3026;53.612;7.278;2022-10-16T14:14:56;12.03;;;2.50;;
5995;SDS011;3026;53.612;7.278;2022-10-16T14:17:26;14.13;;;2.80;;
5995;SDS011;3026;53.612;7.278;2022-10-16T14:19:55;9.20;;;2.50;;
5995;SDS011;3026;53.612;7.278;2022-10-16T14:22:30;12.30;;;2.93;;
5995;SDS011;3026;53.612;7.278;2022-10-16T14:25:02;8.33;;;2.90;;
5995;SDS011;3026;53.612;7.278;2022-10-16T14:27:55;11.33;;;2.40;;
5995;SDS011;3026;53.612;7.278;2022-10-16T14:30:24;11.10;;;2.83;;
5995;SDS011;3026;53.612;7.278;2022-10-16T14:32:55;10.77;;;2.97;;
5995;SDS011;3026;53.612;7.278;2022-10-16T14:35:25;11.03;;;2.73;;
5995;SDS011;3026;53.612;7.278;2022-10-16T14:38:00;11.53;;;2.77;;
5995;SDS011;3026;53.612;7.278;2022-10-16T14:40:30;14.03;;;3.53;;
5995;SDS011;3026;53.612;7.278;2022-10-16T14:43:02;8.73;;;2.33;;
5995;SDS011;3026;53.612;7.278;2022-10-16T14:45:31;11.97;;;2.70;;
5995;SDS011;3026;53.612;7.278;2022-10-16T14:48:01;24.27;;;4.27;;
5995;SDS011;3026;53.612;7.278;2022-10-16T14:50:32;11.77;;;2.60;;
5995;SDS011;3026;53.612;7.278;2022-10-16T14:52:59;12.27;;;2.77;;
5995;SDS011;3026;53.612;7.278;2022-10-16T14:55:27;11.40;;;2.60;;
5995;SDS011;3026;53.612;7.278;2022-10-16T14:57:55;13.10;;;2.77;;
5995;SDS011;3026;53.612;7.278;2022-10-16T15:00:25;13.53;;;3.23;;
5995;SDS011;3026;53.612;7.278;2022-10-16T15:02:53;10.97;;;2.43;;
5995;SDS011;3026;53.612;7.278;2022-10-16T15:05:21;18.23;;;2.30;;
5995;SDS011;3026;53.612;7.278;2022-10-16T15:07:50;9.10;;;2.90;;
5995;SDS011;3026;53.612;7.278;2022-10-16T15:10:18;10.63;;;2.57;;
5995;SDS011;3026;53.612;7.278;2022-10-16T15:12:53;10.40;;;2.53;;
5995;SDS011;3026;53.612;7.278;2022-10-16T15:15:26;16.43;;;2.70;;
5995;SDS011;3026;53.612;7.278;2022-10-16T15:17:59;8.53;;;2.80;;
5995;SDS011;3026;53.612;7.278;2022-10-16T15:20:27;9.83;;;2.67;;
5995;SDS011;3026;53.612;7.278;2022-10-16T15:22:58;9.00;;;2.37;;
5995;SDS011;3026;53.612;7.278;2022-10-16T15:25:31;10.83;;;3.37;;
5995;SDS011;3026;53.612;7.278;2022-10-16T15:28:02;7.73;;;2.50;;
5995;SDS011;3026;53.612;7.278;2022-10-16T15:30:34;12.43;;;2.50;;
5995;SDS011;3026;53.612;7.278;2022-10-16T15:33:02;16.67;;;4.23;;
5995;SDS011;3026;53.612;7.278;2022-10-16T15:35:29;16.43;;;3.07;;
5995;SDS011;3026;53.612;7.278;2022-10-16T15:37:56;9.80;;;2.63;;
5995;SDS011;3026;53.612;7.278;2022-10-16T15:40:24;14.40;;;2.83;;
5995;SDS011;3026;53.612;7.278;2022-10-16T15:42:52;14.40;;;2.87;;
5995;SDS011;3026;53.612;7.278;2022-10-16T15:45:19;16.97;;;3.10;;
5995;SDS011;3026;53.612;7.278;2022-10-16T15:47:47;10.80;;;2.77;;
5995;SDS011;3026;53.612;7.278;2022-10-16T15:50:15;12.67;;;3.00;;
5995;SDS011;3026;53.612;7.278;2022-10-16T15:52:45;13.17;;;2.97;;
5995;SDS011;3026;53.612;7.278;2022-10-16T15:55:12;12.13;;;2.43;;
5995;SDS011;3026;53.612;7.278;2022-10-16T15:57:40;11.73;;;2.90;;
5995;SDS011;3026;53.612;7.278;2022-10-16T16:00:09;22.00;;;3.93;;
5995;SDS011;3026;53.612;7.278;2022-10-16T16:02:39;10.30;;;3.37;;
5995;SDS011;3026;53.612;7.278;2022-10-16T16:05:08;9.67;;;2.67;;
5995;SDS011;3026;53.612;7.278;2022-10-16T16:07:36;16.57;;;3.47;;
5995;SDS011;3026;53.612;7.278;2022-10-16T16:10:05;13.73;;;3.40;;
5995;SDS011;3026;53.612;7.278;2022-10-16T16:12:34;15.30;;;3.27;;
5995;SDS011;3026;53.612;7.278;2022-10-16T16:15:02;9.87;;;2.40;;
5995;SDS011;3026;53.612;7.278;2022-10-16T16:17:31;7.30;;;2.30;;
5995;SDS011;3026;53.612;7.278;2022-10-16T16:19:59;13.63;;;2.20;;
5995;SDS011;3026;53.612;7.278;2022-10-16T16:22:28;7.93;;;2.03;;
5995;SDS011;3026;53.612;7.278;2022-10-16T16:24:56;10.00;;;2.40;;
5995;SDS011;3026;53.612;7.278;2022-10-16T16:27:26;12.27;;;2.47;;
5995;SDS011;3026;53.612;7.278;2022-10-16T16:30:00;12.40;;;2.80;;
5995;SDS011;3026;53.612;7.278;2022-10-16T16:32:28;12.73;;;2.97;;
5995;SDS011;3026;53.612;7.278;2022-10-16T16:34:55;11.57;;;2.70;;
5995;SDS011;3026;53.612;7.278;2022-10-16T16:37:22;8.57;;;2.43;;